sensor_id;sensor_type;location;lat;lon;timestamp;P1;durP1;ratioP1;P2;durP2;ratioP2
8397;SDS011;4236;54.504;9.588;2024-02-21T00:01:18;46.73;;;28.43;;
8397;SDS011;4236;54.504;9.588;2024-02-21T00:03:50;43.73;;;28.20;;
8397;SDS011;4236;54.504;9.588;2024-02-21T00:06:18;35.80;;;25.63;;
8397;SDS011;4236;54.504;9.588;2024-02-21T00:08:45;39.13;;;29.00;;
8397;SDS011;4236;54.504;9.588;2024-02-21T00:11:13;38.83;;;26.20;;
8397;SDS011;4236;54.504;9.588;2024-02-21T00:13:41;36.37;;;26.23;;
8397;SDS011;4236;54.504;9.588;2024-02-21T00:16:09;37.00;;;26.90;;
8397;SDS011;4236;54.504;9.588;2024-02-21T00:18:38;33.17;;;25.50;;
8397;SDS011;4236;54.504;9.588;2024-02-21T00:21:07;37.70;;;26.47;;
8397;SDS011;4236;54.504;9.588;2024-02-21T00:23:34;36.60;;;25.70;;
8397;SDS011;4236;54.504;9.588;2024-02-21T00:26:02;35.57;;;26.47;;
8397;SDS011;4236;54.504;9.588;2024-02-21T00:28:32;31.10;;;25.33;;
8397;SDS011;4236;54.504;9.588;2024-02-21T00:30:59;29.63;;;25.27;;
8397;SDS011;4236;54.504;9.588;2024-02-21T00:33:27;33.33;;;26.40;;
8397;SDS011;4236;54.504;9.588;2024-02-21T00:35:55;28.20;;;25.30;;
8397;SDS011;4236;54.504;9.588;2024-02-21T00:38:24;30.43;;;25.67;;
8397;SDS011;4236;54.504;9.588;2024-02-21T00:40:52;31.63;;;25.87;;
8397;SDS011;4236;54.504;9.588;2024-02-21T00:43:20;39.53;;;26.50;;
8397;SDS011;4236;54.504;9.588;2024-02-21T00:45:50;30.37;;;24.83;;
8397;SDS011;4236;54.504;9.588;2024-02-21T00:48:17;34.07;;;25.80;;
8397;SDS011;4236;54.504;9.588;2024-02-21T00:50:46;28.33;;;25.53;;
8397;SDS011;4236;54.504;9.588;2024-02-21T00:53:13;31.20;;;26.83;;
8397;SDS011;4236;54.504;9.588;2024-02-21T00:55:42;28.70;;;25.60;;
8397;SDS011;4236;54.504;9.588;2024-02-21T00:58:10;35.23;;;25.90;;
8397;SDS011;4236;54.504;9.588;2024-02-21T01:00:38;29.60;;;25.63;;
8397;SDS011;4236;54.504;9.588;2024-02-21T01:03:06;37.50;;;28.10;;
8397;SDS011;4236;54.504;9.588;2024-02-21T01:05:33;30.17;;;26.67;;
8397;SDS011;4236;54.504;9.588;2024-02-21T01:08:01;29.80;;;26.60;;
8397;SDS011;4236;54.504;9.588;2024-02-21T01:10:29;30.37;;;26.60;;
8397;SDS011;4236;54.504;9.588;2024-02-21T01:12:58;28.93;;;26.30;;
8397;SDS011;4236;54.504;9.588;2024-02-21T01:15:26;32.83;;;25.23;;
8397;SDS011;4236;54.504;9.588;2024-02-21T01:17:54;28.23;;;25.27;;
8397;SDS011;4236;54.504;9.588;2024-02-21T01:20:22;27.87;;;25.07;;
8397;SDS011;4236;54.504;9.588;2024-02-21T01:22:50;27.60;;;25.10;;
8397;SDS011;4236;54.504;9.588;2024-02-21T01:25:18;26.00;;;23.50;;
8397;SDS011;4236;54.504;9.588;2024-02-21T01:27:45;26.40;;;23.70;;
8397;SDS011;4236;54.504;9.588;2024-02-21T01:30:15;24.00;;;22.20;;
8397;SDS011;4236;54.504;9.588;2024-02-21T01:32:42;26.20;;;23.50;;
8397;SDS011;4236;54.504;9.588;2024-02-21T01:35:10;26.60;;;23.77;;
8397;SDS011;4236;54.504;9.588;2024-02-21T01:37:38;24.77;;;22.57;;
8397;SDS011;4236;54.504;9.588;2024-02-21T01:40:06;24.13;;;22.30;;
8397;SDS011;4236;54.504;9.588;2024-02-21T01:42:37;22.83;;;21.33;;
8397;SDS011;4236;54.504;9.588;2024-02-21T01:45:06;26.30;;;22.20;;
8397;SDS011;4236;54.504;9.588;2024-02-21T01:47:35;24.53;;;22.47;;
8397;SDS011;4236;54.504;9.588;2024-02-21T01:50:04;23.30;;;21.60;;
8397;SDS011;4236;54.504;9.588;2024-02-21T01:52:33;24.23;;;22.20;;
8397;SDS011;4236;54.504;9.588;2024-02-21T01:55:02;23.97;;;22.00;;
8397;SDS011;4236;54.504;9.588;2024-02-21T01:57:31;24.33;;;22.53;;
8397;SDS011;4236;54.504;9.588;2024-02-21T01:59:59;28.50;;;23.03;;
8397;SDS011;4236;54.504;9.588;2024-02-21T02:02:28;26.47;;;24.00;;
8397;SDS011;4236;54.504;9.588;2024-02-21T02:04:58;25.53;;;23.50;;
8397;SDS011;4236;54.504;9.588;2024-02-21T02:07:27;26.20;;;23.77;;
8397;SDS011;4236;54.504;9.588;2024-02-21T02:09:54;24.10;;;22.07;;
8397;SDS011;4236;54.504;9.588;2024-02-21T02:12:22;23.60;;;22.00;;
8397;SDS011;4236;54.504;9.588;2024-02-21T02:14:57;24.07;;;22.20;;
8397;SDS011;4236;54.504;9.588;2024-02-21T02:17:25;22.97;;;21.37;;
8397;SDS011;4236;54.504;9.588;2024-02-21T02:19:53;23.80;;;21.90;;
8397;SDS011;4236;54.504;9.588;2024-02-21T02:22:22;23.53;;;21.27;;
8397;SDS011;4236;54.504;9.588;2024-02-21T02:24:57;21.97;;;20.57;;
8397;SDS011;4236;54.504;9.588;2024-02-21T02:27:25;22.43;;;20.93;;
8397;SDS011;4236;54.504;9.588;2024-02-21T02:29:53;22.03;;;20.13;;
8397;SDS011;4236;54.504;9.588;2024-02-21T02:32:21;29.10;;;22.17;;
8397;SDS011;4236;54.504;9.588;2024-02-21T02:34:48;22.80;;;20.70;;
8397;SDS011;4236;54.504;9.588;2024-02-21T02:37:16;25.67;;;23.27;;
8397;SDS011;4236;54.504;9.588;2024-02-21T02:39:44;26.30;;;23.80;;
8397;SDS011;4236;54.504;9.588;2024-02-21T02:42:13;37.40;;;24.70;;
8397;SDS011;4236;54.504;9.588;2024-02-21T02:44:40;28.37;;;23.97;;
8397;SDS011;4236;54.504;9.588;2024-02-21T02:47:08;28.50;;;23.13;;
8397;SDS011;4236;54.504;9.588;2024-02-21T02:49:36;23.47;;;21.20;;
8397;SDS011;4236;54.504;9.588;2024-02-21T02:52:04;23.23;;;21.10;;
8397;SDS011;4236;54.504;9.588;2024-02-21T02:54:32;23.67;;;21.67;;
8397;SDS011;4236;54.504;9.588;2024-02-21T02:57:00;23.07;;;20.90;;
8397;SDS011;4236;54.504;9.588;2024-02-21T02:59:31;22.13;;;20.60;;
8397;SDS011;4236;54.504;9.588;2024-02-21T03:01:59;22.77;;;19.80;;
8397;SDS011;4236;54.504;9.588;2024-02-21T03:04:26;21.53;;;19.87;;
8397;SDS011;4236;54.504;9.588;2024-02-21T03:06:54;21.03;;;19.53;;
8397;SDS011;4236;54.504;9.588;2024-02-21T03:09:22;20.93;;;19.20;;
8397;SDS011;4236;54.504;9.588;2024-02-21T03:11:50;23.10;;;21.13;;
8397;SDS011;4236;54.504;9.588;2024-02-21T03:14:18;20.50;;;18.90;;
8397;SDS011;4236;54.504;9.588;2024-02-21T03:16:47;27.87;;;20.40;;
8397;SDS011;4236;54.504;9.588;2024-02-21T03:19:15;23.37;;;20.90;;
8397;SDS011;4236;54.504;9.588;2024-02-21T03:21:44;21.80;;;19.80;;
8397;SDS011;4236;54.504;9.588;2024-02-21T03:24:12;21.73;;;20.20;;
8397;SDS011;4236;54.504;9.588;2024-02-21T03:26:39;23.07;;;20.60;;
8397;SDS011;4236;54.504;9.588;2024-02-21T03:29:07;26.40;;;21.53;;
8397;SDS011;4236;54.504;9.588;2024-02-21T03:31:36;28.77;;;23.37;;
8397;SDS011;4236;54.504;9.588;2024-02-21T03:34:05;24.10;;;21.80;;
8397;SDS011;4236;54.504;9.588;2024-02-21T03:36:33;24.20;;;21.83;;
8397;SDS011;4236;54.504;9.588;2024-02-21T03:39:01;28.63;;;21.97;;
8397;SDS011;4236;54.504;9.588;2024-02-21T03:41:29;26.40;;;22.20;;
8397;SDS011;4236;54.504;9.588;2024-02-21T03:43:57;25.67;;;22.40;;
8397;SDS011;4236;54.504;9.588;2024-02-21T03:46:25;27.27;;;21.33;;
8397;SDS011;4236;54.504;9.588;2024-02-21T03:48:53;37.67;;;22.00;;
8397;SDS011;4236;54.504;9.588;2024-02-21T03:51:22;22.70;;;20.87;;
8397;SDS011;4236;54.504;9.588;2024-02-21T03:53:50;26.20;;;22.10;;
8397;SDS011;4236;54.504;9.588;2024-02-21T03:56:18;27.60;;;21.20;;
8397;SDS011;4236;54.504;9.588;2024-02-21T03:58:45;28.00;;;20.90;;
8397;SDS011;4236;54.504;9.588;2024-02-21T04:01:14;34.83;;;20.90;;
8397;SDS011;4236;54.504;9.588;2024-02-21T04:03:43;26.27;;;22.37;;
8397;SDS011;4236;54.504;9.588;2024-02-21T04:06:11;32.33;;;21.03;;
8397;SDS011;4236;54.504;9.588;2024-02-21T04:08:40;31.57;;;20.73;;
8397;SDS011;4236;54.504;9.588;2024-02-21T04:11:08;32.60;;;22.33;;
8397;SDS011;4236;54.504;9.588;2024-02-21T04:13:36;29.17;;;21.70;;
8397;SDS011;4236;54.504;9.588;2024-02-21T04:16:04;37.63;;;22.73;;
8397;SDS011;4236;54.504;9.588;2024-02-21T04:18:32;27.47;;;20.90;;
8397;SDS011;4236;54.504;9.588;2024-02-21T04:20:59;34.33;;;20.87;;
8397;SDS011;4236;54.504;9.588;2024-02-21T04:23:27;31.73;;;20.07;;
8397;SDS011;4236;54.504;9.588;2024-02-21T04:25:56;25.30;;;20.90;;
8397;SDS011;4236;54.504;9.588;2024-02-21T04:28:24;23.97;;;21.47;;
8397;SDS011;4236;54.504;9.588;2024-02-21T04:30:52;29.13;;;21.97;;
8397;SDS011;4236;54.504;9.588;2024-02-21T04:33:20;27.83;;;22.00;;
8397;SDS011;4236;54.504;9.588;2024-02-21T04:35:47;27.40;;;22.93;;
8397;SDS011;4236;54.504;9.588;2024-02-21T04:38:15;30.60;;;21.37;;
8397;SDS011;4236;54.504;9.588;2024-02-21T04:40:43;26.70;;;20.97;;
8397;SDS011;4236;54.504;9.588;2024-02-21T04:43:12;33.07;;;23.90;;
8397;SDS011;4236;54.504;9.588;2024-02-21T04:45:40;31.43;;;21.87;;
8397;SDS011;4236;54.504;9.588;2024-02-21T04:48:07;30.57;;;21.67;;
8397;SDS011;4236;54.504;9.588;2024-02-21T04:50:35;24.93;;;22.37;;
8397;SDS011;4236;54.504;9.588;2024-02-21T04:53:03;36.03;;;22.30;;
8397;SDS011;4236;54.504;9.588;2024-02-21T04:55:31;29.50;;;21.60;;
8397;SDS011;4236;54.504;9.588;2024-02-21T04:57:59;31.23;;;23.83;;
8397;SDS011;4236;54.504;9.588;2024-02-21T05:00:29;35.10;;;22.23;;
8397;SDS011;4236;54.504;9.588;2024-02-21T05:02:57;28.07;;;20.40;;
8397;SDS011;4236;54.504;9.588;2024-02-21T05:05:25;30.33;;;22.13;;
8397;SDS011;4236;54.504;9.588;2024-02-21T05:07:53;30.67;;;21.40;;
8397;SDS011;4236;54.504;9.588;2024-02-21T05:10:20;26.60;;;20.90;;
8397;SDS011;4236;54.504;9.588;2024-02-21T05:12:48;35.33;;;20.20;;
8397;SDS011;4236;54.504;9.588;2024-02-21T05:15:16;35.93;;;20.27;;
8397;SDS011;4236;54.504;9.588;2024-02-21T05:17:45;25.03;;;19.77;;
8397;SDS011;4236;54.504;9.588;2024-02-21T05:20:13;31.17;;;23.30;;
8397;SDS011;4236;54.504;9.588;2024-02-21T05:22:41;26.03;;;22.33;;
8397;SDS011;4236;54.504;9.588;2024-02-21T05:25:09;23.83;;;21.40;;
8397;SDS011;4236;54.504;9.588;2024-02-21T05:27:37;34.90;;;23.17;;
8397;SDS011;4236;54.504;9.588;2024-02-21T05:30:05;34.63;;;24.50;;
8397;SDS011;4236;54.504;9.588;2024-02-21T05:32:33;30.00;;;22.23;;
8397;SDS011;4236;54.504;9.588;2024-02-21T05:35:03;33.83;;;23.53;;
8397;SDS011;4236;54.504;9.588;2024-02-21T05:37:31;29.23;;;22.67;;
8397;SDS011;4236;54.504;9.588;2024-02-21T05:39:59;38.13;;;23.27;;
8397;SDS011;4236;54.504;9.588;2024-02-21T05:42:26;45.83;;;23.43;;
8397;SDS011;4236;54.504;9.588;2024-02-21T05:44:54;33.37;;;24.40;;
8397;SDS011;4236;54.504;9.588;2024-02-21T05:47:22;29.10;;;24.50;;
8397;SDS011;4236;54.504;9.588;2024-02-21T05:49:49;35.77;;;23.53;;
8397;SDS011;4236;54.504;9.588;2024-02-21T05:52:21;31.77;;;22.57;;
8397;SDS011;4236;54.504;9.588;2024-02-21T05:54:49;33.00;;;24.30;;
8397;SDS011;4236;54.504;9.588;2024-02-21T05:57:17;31.17;;;24.40;;
8397;SDS011;4236;54.504;9.588;2024-02-21T05:59:45;34.27;;;23.70;;
8397;SDS011;4236;54.504;9.588;2024-02-21T06:02:13;34.80;;;23.43;;
8397;SDS011;4236;54.504;9.588;2024-02-21T06:04:41;43.67;;;24.80;;
8397;SDS011;4236;54.504;9.588;2024-02-21T06:07:10;32.97;;;23.40;;
8397;SDS011;4236;54.504;9.588;2024-02-21T06:09:40;32.63;;;22.80;;
8397;SDS011;4236;54.504;9.588;2024-02-21T06:12:07;50.17;;;24.47;;
8397;SDS011;4236;54.504;9.588;2024-02-21T06:14:35;30.30;;;22.47;;
8397;SDS011;4236;54.504;9.588;2024-02-21T06:17:03;34.00;;;22.43;;
8397;SDS011;4236;54.504;9.588;2024-02-21T06:19:31;31.87;;;22.37;;
8397;SDS011;4236;54.504;9.588;2024-02-21T06:21:59;38.23;;;21.53;;
8397;SDS011;4236;54.504;9.588;2024-02-21T06:24:26;40.90;;;24.23;;
8397;SDS011;4236;54.504;9.588;2024-02-21T06:26:55;41.33;;;23.07;;
8397;SDS011;4236;54.504;9.588;2024-02-21T06:29:23;33.33;;;23.20;;
8397;SDS011;4236;54.504;9.588;2024-02-21T06:31:51;28.73;;;24.40;;
8397;SDS011;4236;54.504;9.588;2024-02-21T06:34:18;32.20;;;23.40;;
8397;SDS011;4236;54.504;9.588;2024-02-21T06:36:46;30.37;;;21.70;;
8397;SDS011;4236;54.504;9.588;2024-02-21T06:39:14;29.07;;;22.57;;
8397;SDS011;4236;54.504;9.588;2024-02-21T06:41:42;29.33;;;22.50;;
8397;SDS011;4236;54.504;9.588;2024-02-21T06:44:11;38.67;;;22.77;;
8397;SDS011;4236;54.504;9.588;2024-02-21T06:46:39;41.03;;;21.80;;
8397;SDS011;4236;54.504;9.588;2024-02-21T06:49:06;27.47;;;21.73;;
8397;SDS011;4236;54.504;9.588;2024-02-21T06:51:34;28.13;;;21.10;;
8397;SDS011;4236;54.504;9.588;2024-02-21T06:54:03;23.37;;;20.87;;
8397;SDS011;4236;54.504;9.588;2024-02-21T06:56:31;27.10;;;22.17;;
8397;SDS011;4236;54.504;9.588;2024-02-21T06:58:58;27.00;;;22.50;;
8397;SDS011;4236;54.504;9.588;2024-02-21T07:01:28;32.27;;;22.03;;
8397;SDS011;4236;54.504;9.588;2024-02-21T07:03:56;32.73;;;22.40;;
8397;SDS011;4236;54.504;9.588;2024-02-21T07:06:23;37.53;;;21.70;;
8397;SDS011;4236;54.504;9.588;2024-02-21T07:08:51;44.47;;;22.80;;
8397;SDS011;4236;54.504;9.588;2024-02-21T07:11:19;26.70;;;22.27;;
8397;SDS011;4236;54.504;9.588;2024-02-21T07:13:47;25.60;;;23.00;;
8397;SDS011;4236;54.504;9.588;2024-02-21T07:16:14;30.33;;;22.17;;
8397;SDS011;4236;54.504;9.588;2024-02-21T07:18:43;37.63;;;24.70;;
8397;SDS011;4236;54.504;9.588;2024-02-21T07:21:11;29.53;;;22.10;;
8397;SDS011;4236;54.504;9.588;2024-02-21T07:23:40;32.87;;;24.10;;
8397;SDS011;4236;54.504;9.588;2024-02-21T07:26:08;32.13;;;22.63;;
8397;SDS011;4236;54.504;9.588;2024-02-21T07:28:36;32.20;;;22.90;;
8397;SDS011;4236;54.504;9.588;2024-02-21T07:31:04;28.60;;;22.60;;
8397;SDS011;4236;54.504;9.588;2024-02-21T07:33:32;29.50;;;21.93;;
8397;SDS011;4236;54.504;9.588;2024-02-21T07:36:06;29.93;;;23.73;;
8397;SDS011;4236;54.504;9.588;2024-02-21T07:38:35;42.43;;;23.10;;
8397;SDS011;4236;54.504;9.588;2024-02-21T07:41:03;24.93;;;22.53;;
8397;SDS011;4236;54.504;9.588;2024-02-21T07:43:31;29.20;;;21.30;;
8397;SDS011;4236;54.504;9.588;2024-02-21T07:45:59;35.13;;;24.33;;
8397;SDS011;4236;54.504;9.588;2024-02-21T07:48:27;33.30;;;24.10;;
8397;SDS011;4236;54.504;9.588;2024-02-21T07:50:57;33.93;;;22.30;;
8397;SDS011;4236;54.504;9.588;2024-02-21T07:53:27;35.43;;;23.57;;
8397;SDS011;4236;54.504;9.588;2024-02-21T07:55:54;31.90;;;23.23;;
8397;SDS011;4236;54.504;9.588;2024-02-21T07:58:22;24.80;;;22.30;;
8397;SDS011;4236;54.504;9.588;2024-02-21T08:00:50;35.27;;;23.80;;
8397;SDS011;4236;54.504;9.588;2024-02-21T08:03:18;32.10;;;22.77;;
8397;SDS011;4236;54.504;9.588;2024-02-21T08:05:47;33.93;;;23.23;;
8397;SDS011;4236;54.504;9.588;2024-02-21T08:08:14;29.77;;;22.40;;
8397;SDS011;4236;54.504;9.588;2024-02-21T08:10:46;36.20;;;22.30;;
8397;SDS011;4236;54.504;9.588;2024-02-21T08:13:14;28.30;;;21.60;;
8397;SDS011;4236;54.504;9.588;2024-02-21T08:15:41;30.00;;;21.00;;
8397;SDS011;4236;54.504;9.588;2024-02-21T08:18:09;31.53;;;22.07;;
8397;SDS011;4236;54.504;9.588;2024-02-21T08:20:37;35.27;;;22.13;;
8397;SDS011;4236;54.504;9.588;2024-02-21T08:23:05;23.60;;;21.20;;
8397;SDS011;4236;54.504;9.588;2024-02-21T08:25:33;36.30;;;20.83;;
8397;SDS011;4236;54.504;9.588;2024-02-21T08:28:02;24.73;;;19.70;;
8397;SDS011;4236;54.504;9.588;2024-02-21T08:30:30;31.17;;;21.33;;
8397;SDS011;4236;54.504;9.588;2024-02-21T08:32:58;24.77;;;21.63;;
8397;SDS011;4236;54.504;9.588;2024-02-21T08:35:27;22.90;;;20.60;;
8397;SDS011;4236;54.504;9.588;2024-02-21T08:37:54;25.17;;;20.93;;
8397;SDS011;4236;54.504;9.588;2024-02-21T08:40:22;29.87;;;20.90;;
8397;SDS011;4236;54.504;9.588;2024-02-21T08:42:50;31.63;;;21.20;;
8397;SDS011;4236;54.504;9.588;2024-02-21T08:45:19;26.00;;;20.27;;
8397;SDS011;4236;54.504;9.588;2024-02-21T08:47:47;22.30;;;20.10;;
8397;SDS011;4236;54.504;9.588;2024-02-21T08:50:15;29.77;;;22.83;;
8397;SDS011;4236;54.504;9.588;2024-02-21T08:52:53;23.50;;;20.30;;
8397;SDS011;4236;54.504;9.588;2024-02-21T08:55:21;28.93;;;20.70;;
8397;SDS011;4236;54.504;9.588;2024-02-21T08:57:50;24.63;;;20.43;;
8397;SDS011;4236;54.504;9.588;2024-02-21T09:00:19;30.13;;;21.67;;
8397;SDS011;4236;54.504;9.588;2024-02-21T09:02:53;27.13;;;21.20;;
8397;SDS011;4236;54.504;9.588;2024-02-21T09:05:22;31.57;;;20.43;;
8397;SDS011;4236;54.504;9.588;2024-02-21T09:07:51;28.13;;;19.97;;
8397;SDS011;4236;54.504;9.588;2024-02-21T09:10:19;21.00;;;18.80;;
8397;SDS011;4236;54.504;9.588;2024-02-21T09:12:47;22.83;;;20.43;;
8397;SDS011;4236;54.504;9.588;2024-02-21T09:15:15;28.03;;;19.53;;
8397;SDS011;4236;54.504;9.588;2024-02-21T09:17:44;32.57;;;20.50;;
8397;SDS011;4236;54.504;9.588;2024-02-21T09:20:12;28.10;;;20.43;;
8397;SDS011;4236;54.504;9.588;2024-02-21T09:22:42;28.17;;;20.23;;
8397;SDS011;4236;54.504;9.588;2024-02-21T09:25:10;25.80;;;18.43;;
8397;SDS011;4236;54.504;9.588;2024-02-21T09:27:38;22.77;;;19.10;;
8397;SDS011;4236;54.504;9.588;2024-02-21T09:30:06;24.53;;;17.80;;
8397;SDS011;4236;54.504;9.588;2024-02-21T09:32:35;26.53;;;19.20;;
8397;SDS011;4236;54.504;9.588;2024-02-21T09:35:05;38.03;;;20.37;;
8397;SDS011;4236;54.504;9.588;2024-02-21T09:37:33;31.00;;;22.10;;
8397;SDS011;4236;54.504;9.588;2024-02-21T09:40:01;26.07;;;19.97;;
8397;SDS011;4236;54.504;9.588;2024-02-21T09:42:30;27.57;;;19.43;;
8397;SDS011;4236;54.504;9.588;2024-02-21T09:45:04;21.53;;;19.50;;
8397;SDS011;4236;54.504;9.588;2024-02-21T09:47:39;39.73;;;22.53;;
8397;SDS011;4236;54.504;9.588;2024-02-21T09:50:17;23.67;;;20.87;;
8397;SDS011;4236;54.504;9.588;2024-02-21T09:52:47;24.20;;;21.00;;
8397;SDS011;4236;54.504;9.588;2024-02-21T09:55:16;23.70;;;21.23;;
8397;SDS011;4236;54.504;9.588;2024-02-21T09:57:45;23.97;;;20.67;;
8397;SDS011;4236;54.504;9.588;2024-02-21T10:00:13;22.83;;;20.67;;
8397;SDS011;4236;54.504;9.588;2024-02-21T10:02:47;28.20;;;20.10;;
8397;SDS011;4236;54.504;9.588;2024-02-21T10:05:17;21.83;;;19.50;;
8397;SDS011;4236;54.504;9.588;2024-02-21T10:07:45;28.27;;;19.70;;
8397;SDS011;4236;54.504;9.588;2024-02-21T10:10:14;26.90;;;19.70;;
8397;SDS011;4236;54.504;9.588;2024-02-21T10:12:48;22.73;;;18.30;;
8397;SDS011;4236;54.504;9.588;2024-02-21T10:15:19;29.83;;;17.57;;
8397;SDS011;4236;54.504;9.588;2024-02-21T10:17:49;18.93;;;17.03;;
8397;SDS011;4236;54.504;9.588;2024-02-21T10:20:18;29.33;;;17.23;;
8397;SDS011;4236;54.504;9.588;2024-02-21T10:22:46;23.10;;;17.83;;
8397;SDS011;4236;54.504;9.588;2024-02-21T10:25:14;21.53;;;18.80;;
8397;SDS011;4236;54.504;9.588;2024-02-21T10:27:41;21.10;;;18.10;;
8397;SDS011;4236;54.504;9.588;2024-02-21T10:30:12;19.63;;;17.60;;
8397;SDS011;4236;54.504;9.588;2024-02-21T10:32:49;22.07;;;19.17;;
8397;SDS011;4236;54.504;9.588;2024-02-21T10:35:26;20.20;;;18.50;;
8397;SDS011;4236;54.504;9.588;2024-02-21T10:37:55;20.40;;;18.23;;
8397;SDS011;4236;54.504;9.588;2024-02-21T10:40:24;19.83;;;17.77;;
8397;SDS011;4236;54.504;9.588;2024-02-21T10:42:56;20.13;;;18.07;;
8397;SDS011;4236;54.504;9.588;2024-02-21T10:45:28;19.07;;;17.30;;
8397;SDS011;4236;54.504;9.588;2024-02-21T10:48:01;18.60;;;16.70;;
8397;SDS011;4236;54.504;9.588;2024-02-21T10:50:40;20.43;;;18.43;;
8397;SDS011;4236;54.504;9.588;2024-02-21T10:53:24;18.83;;;17.27;;
8397;SDS011;4236;54.504;9.588;2024-02-21T10:56:01;20.10;;;18.10;;
8397;SDS011;4236;54.504;9.588;2024-02-21T10:58:39;21.63;;;19.37;;
8397;SDS011;4236;54.504;9.588;2024-02-21T11:01:09;20.87;;;19.13;;
8397;SDS011;4236;54.504;9.588;2024-02-21T11:03:39;21.83;;;18.30;;
8397;SDS011;4236;54.504;9.588;2024-02-21T11:06:08;20.33;;;17.40;;
8397;SDS011;4236;54.504;9.588;2024-02-21T11:08:37;17.00;;;15.70;;
8397;SDS011;4236;54.504;9.588;2024-02-21T11:11:05;18.30;;;16.50;;
8397;SDS011;4236;54.504;9.588;2024-02-21T11:13:37;18.27;;;15.90;;
8397;SDS011;4236;54.504;9.588;2024-02-21T11:16:06;17.23;;;15.73;;
8397;SDS011;4236;54.504;9.588;2024-02-21T11:18:35;18.90;;;16.70;;
8397;SDS011;4236;54.504;9.588;2024-02-21T11:21:04;18.50;;;16.67;;
8397;SDS011;4236;54.504;9.588;2024-02-21T11:23:33;19.20;;;17.57;;
8397;SDS011;4236;54.504;9.588;2024-02-21T11:26:04;17.63;;;16.30;;
8397;SDS011;4236;54.504;9.588;2024-02-21T11:28:33;19.40;;;17.47;;
8397;SDS011;4236;54.504;9.588;2024-02-21T11:31:09;20.70;;;18.70;;
8397;SDS011;4236;54.504;9.588;2024-02-21T11:33:40;22.17;;;19.90;;
8397;SDS011;4236;54.504;9.588;2024-02-21T11:36:08;21.07;;;18.90;;
8397;SDS011;4236;54.504;9.588;2024-02-21T11:38:38;20.67;;;18.77;;
8397;SDS011;4236;54.504;9.588;2024-02-21T11:41:07;21.50;;;19.20;;
8397;SDS011;4236;54.504;9.588;2024-02-21T11:43:38;23.37;;;21.17;;
8397;SDS011;4236;54.504;9.588;2024-02-21T11:46:06;22.17;;;19.87;;
8397;SDS011;4236;54.504;9.588;2024-02-21T11:48:35;22.57;;;20.67;;
8397;SDS011;4236;54.504;9.588;2024-02-21T11:51:03;22.63;;;20.27;;
8397;SDS011;4236;54.504;9.588;2024-02-21T11:53:32;23.00;;;21.27;;
8397;SDS011;4236;54.504;9.588;2024-02-21T11:56:07;22.30;;;20.10;;
8397;SDS011;4236;54.504;9.588;2024-02-21T11:58:35;22.70;;;20.83;;
8397;SDS011;4236;54.504;9.588;2024-02-21T12:01:03;23.13;;;20.77;;
8397;SDS011;4236;54.504;9.588;2024-02-21T12:03:31;23.33;;;21.53;;
8397;SDS011;4236;54.504;9.588;2024-02-21T12:06:00;22.40;;;20.43;;
8397;SDS011;4236;54.504;9.588;2024-02-21T12:08:40;21.90;;;19.83;;
8397;SDS011;4236;54.504;9.588;2024-02-21T12:11:17;23.27;;;21.00;;
8397;SDS011;4236;54.504;9.588;2024-02-21T12:13:47;23.07;;;20.83;;
8397;SDS011;4236;54.504;9.588;2024-02-21T12:16:15;26.70;;;23.33;;
8397;SDS011;4236;54.504;9.588;2024-02-21T12:18:44;24.67;;;22.13;;
8397;SDS011;4236;54.504;9.588;2024-02-21T12:21:12;25.47;;;22.90;;
8397;SDS011;4236;54.504;9.588;2024-02-21T12:23:40;27.60;;;23.53;;
8397;SDS011;4236;54.504;9.588;2024-02-21T12:26:08;26.47;;;23.57;;
8397;SDS011;4236;54.504;9.588;2024-02-21T12:28:37;25.03;;;22.33;;
8397;SDS011;4236;54.504;9.588;2024-02-21T12:31:05;24.97;;;22.87;;
8397;SDS011;4236;54.504;9.588;2024-02-21T12:33:33;26.80;;;24.30;;
8397;SDS011;4236;54.504;9.588;2024-02-21T12:36:01;28.40;;;25.07;;
8397;SDS011;4236;54.504;9.588;2024-02-21T12:38:30;26.07;;;23.77;;
8397;SDS011;4236;54.504;9.588;2024-02-21T12:40:58;25.17;;;22.80;;
8397;SDS011;4236;54.504;9.588;2024-02-21T12:43:26;27.37;;;24.73;;
8397;SDS011;4236;54.504;9.588;2024-02-21T12:45:56;25.40;;;23.27;;
8397;SDS011;4236;54.504;9.588;2024-02-21T12:48:24;23.80;;;21.90;;
8397;SDS011;4236;54.504;9.588;2024-02-21T12:50:52;24.10;;;22.13;;
8397;SDS011;4236;54.504;9.588;2024-02-21T12:53:19;23.07;;;21.53;;
8397;SDS011;4236;54.504;9.588;2024-02-21T12:55:58;22.67;;;21.17;;
8397;SDS011;4236;54.504;9.588;2024-02-21T12:58:26;24.83;;;22.53;;
8397;SDS011;4236;54.504;9.588;2024-02-21T13:00:56;23.33;;;21.63;;
8397;SDS011;4236;54.504;9.588;2024-02-21T13:03:24;23.10;;;21.80;;
8397;SDS011;4236;54.504;9.588;2024-02-21T13:05:53;23.07;;;21.63;;
8397;SDS011;4236;54.504;9.588;2024-02-21T13:08:21;24.10;;;22.37;;
8397;SDS011;4236;54.504;9.588;2024-02-21T13:10:49;23.70;;;22.40;;
8397;SDS011;4236;54.504;9.588;2024-02-21T13:13:20;23.17;;;21.77;;
8397;SDS011;4236;54.504;9.588;2024-02-21T13:15:48;23.20;;;21.50;;
8397;SDS011;4236;54.504;9.588;2024-02-21T13:18:17;23.10;;;22.00;;
8397;SDS011;4236;54.504;9.588;2024-02-21T13:20:45;21.00;;;20.00;;
8397;SDS011;4236;54.504;9.588;2024-02-21T13:23:13;21.50;;;20.30;;
8397;SDS011;4236;54.504;9.588;2024-02-21T13:25:40;21.67;;;20.47;;
8397;SDS011;4236;54.504;9.588;2024-02-21T13:28:10;21.33;;;19.57;;
8397;SDS011;4236;54.504;9.588;2024-02-21T13:30:38;20.97;;;19.83;;
8397;SDS011;4236;54.504;9.588;2024-02-21T13:33:05;21.93;;;20.73;;
8397;SDS011;4236;54.504;9.588;2024-02-21T13:35:35;23.53;;;21.70;;
8397;SDS011;4236;54.504;9.588;2024-02-21T13:38:05;24.50;;;22.87;;
8397;SDS011;4236;54.504;9.588;2024-02-21T13:40:33;24.17;;;22.57;;
8397;SDS011;4236;54.504;9.588;2024-02-21T13:43:01;25.00;;;23.20;;
8397;SDS011;4236;54.504;9.588;2024-02-21T13:45:28;24.87;;;23.27;;
8397;SDS011;4236;54.504;9.588;2024-02-21T13:47:57;23.53;;;21.73;;
8397;SDS011;4236;54.504;9.588;2024-02-21T13:50:29;23.80;;;22.00;;
8397;SDS011;4236;54.504;9.588;2024-02-21T13:52:59;23.53;;;21.70;;
8397;SDS011;4236;54.504;9.588;2024-02-21T13:55:27;25.80;;;23.70;;
8397;SDS011;4236;54.504;9.588;2024-02-21T13:57:55;26.87;;;25.00;;
8397;SDS011;4236;54.504;9.588;2024-02-21T14:00:23;26.93;;;25.20;;
8397;SDS011;4236;54.504;9.588;2024-02-21T14:02:51;27.53;;;25.30;;
8397;SDS011;4236;54.504;9.588;2024-02-21T14:05:20;27.90;;;25.80;;
8397;SDS011;4236;54.504;9.588;2024-02-21T14:07:48;27.33;;;25.37;;
8397;SDS011;4236;54.504;9.588;2024-02-21T14:10:17;28.50;;;26.20;;
8397;SDS011;4236;54.504;9.588;2024-02-21T14:12:45;26.87;;;24.63;;
8397;SDS011;4236;54.504;9.588;2024-02-21T14:15:14;27.63;;;25.23;;
8397;SDS011;4236;54.504;9.588;2024-02-21T14:17:42;29.97;;;27.50;;
8397;SDS011;4236;54.504;9.588;2024-02-21T14:20:10;29.23;;;27.13;;
8397;SDS011;4236;54.504;9.588;2024-02-21T14:22:43;31.13;;;28.70;;
8397;SDS011;4236;54.504;9.588;2024-02-21T14:25:11;31.27;;;28.73;;
8397;SDS011;4236;54.504;9.588;2024-02-21T14:27:40;30.77;;;27.93;;
8397;SDS011;4236;54.504;9.588;2024-02-21T14:30:10;30.87;;;28.40;;
8397;SDS011;4236;54.504;9.588;2024-02-21T14:32:38;29.67;;;27.47;;
8397;SDS011;4236;54.504;9.588;2024-02-21T14:35:11;33.07;;;30.10;;
8397;SDS011;4236;54.504;9.588;2024-02-21T14:37:39;32.10;;;29.63;;
8397;SDS011;4236;54.504;9.588;2024-02-21T14:40:07;34.13;;;31.30;;
8397;SDS011;4236;54.504;9.588;2024-02-21T14:42:35;35.20;;;32.50;;
8397;SDS011;4236;54.504;9.588;2024-02-21T14:45:05;34.40;;;31.30;;
8397;SDS011;4236;54.504;9.588;2024-02-21T14:47:33;37.13;;;33.20;;
8397;SDS011;4236;54.504;9.588;2024-02-21T14:50:02;36.03;;;32.23;;
8397;SDS011;4236;54.504;9.588;2024-02-21T14:52:31;35.93;;;32.37;;
8397;SDS011;4236;54.504;9.588;2024-02-21T14:54:59;32.93;;;30.23;;
8397;SDS011;4236;54.504;9.588;2024-02-21T14:57:29;32.40;;;29.90;;